Time;durP1;ratioP1;P1;durP2;ratioP2;P2;SDS_P1;SDS_P2;PMS_P1;PMS_P2;Temp;Humidity;BMP_temperature;BMP_pressure;BME280_temperature;BME280_humidity;BME280_pressure;Samples;Min_cycle;Max_cycle;Signal;HPM_P1;HPM_P2
2021/10/19 00:01:10;;;;;;;15.47;12.83;;;15.20;99.90;;;;;;5004534;28;20233;-69
2021/10/19 00:03:39;;;;;;;18.50;12.87;;;15.30;99.90;;;;;;5010138;28;20952;-69
2021/10/19 00:06:09;;;;;;;19.43;13.17;;;15.20;99.90;;;;;;5004706;28;20229;-69
2021/10/19 00:08:38;;;;;;;14.20;12.03;;;15.20;99.90;;;;;;5000129;28;20210;-68
2021/10/19 00:11:09;;;;;;;14.13;11.67;;;15.30;99.90;;;;;;4998670;28;20297;-69
2021/10/19 00:13:38;;;;;;;17.73;11.87;;;15.30;99.90;;;;;;5010687;28;20201;-68
2021/10/19 00:16:09;;;;;;;12.93;11.43;;;15.30;99.90;;;;;;5006451;28;20287;-69
2021/10/19 00:18:38;;;;;;;14.30;10.80;;;15.30;99.90;;;;;;5002338;28;20432;-69
2021/10/19 00:21:06;;;;;;;15.23;10.80;;;15.30;99.90;;;;;;5025056;28;20213;-69
2021/10/19 00:23:34;;;;;;;12.13;10.10;;;15.30;99.90;;;;;;5003332;28;20571;-69
2021/10/19 00:26:03;;;;;;;12.60;10.47;;;15.30;99.90;;;;;;5003418;28;20406;-69
2021/10/19 00:28:32;;;;;;;15.17;10.53;;;15.20;99.90;;;;;;5011702;28;20240;-69
2021/10/19 00:31:00;;;;;;;12.67;10.20;;;15.20;99.90;;;;;;5007671;28;20209;-69
2021/10/19 00:33:31;;;;;;;12.70;10.07;;;15.20;99.90;;;;;;5001776;28;20198;-69
2021/10/19 00:35:59;;;;;;;11.50;10.30;;;15.20;99.90;;;;;;5009043;28;20213;-69
2021/10/19 00:38:30;;;;;;;10.50;9.03;;;15.20;99.90;;;;;;5002429;28;20720;-69
2021/10/19 00:40:59;;;;;;;11.53;8.80;;;15.10;99.90;;;;;;5018147;28;20558;-68
2021/10/19 00:43:27;;;;;;;10.97;8.67;;;15.20;99.90;;;;;;5012549;28;20675;-69
2021/10/19 00:45:56;;;;;;;11.90;8.60;;;15.20;99.90;;;;;;5008099;28;20870;-68
2021/10/19 00:48:26;;;;;;;8.30;7.50;;;15.20;99.90;;;;;;5007391;28;20479;-69
2021/10/19 00:50:57;;;;;;;8.83;7.37;;;15.20;99.90;;;;;;5003752;28;20241;-65
2021/10/19 00:53:25;;;;;;;9.00;7.37;;;15.10;99.90;;;;;;5017609;28;20206;-69
2021/10/19 00:55:54;;;;;;;8.00;7.07;;;15.10;99.90;;;;;;5014123;28;20657;-69
2021/10/19 00:58:22;;;;;;;7.17;6.50;;;15.10;99.90;;;;;;5000038;28;20200;-69
2021/10/19 01:00:51;;;;;;;7.87;7.10;;;15.10;99.90;;;;;;4997716;28;20755;-69
2021/10/19 01:03:20;;;;;;;7.23;6.03;;;15.10;99.90;;;;;;4997709;28;20238;-68
2021/10/19 01:05:49;;;;;;;7.47;6.80;;;15.10;99.90;;;;;;5007096;28;20568;-68
2021/10/19 01:08:19;;;;;;;8.23;6.17;;;15.10;99.90;;;;;;5002729;28;20260;-68
2021/10/19 01:10:49;;;;;;;7.07;5.83;;;15.10;99.90;;;;;;5001161;28;20285;-69
2021/10/19 01:13:18;;;;;;;6.50;5.90;;;15.20;99.90;;;;;;4997488;28;20230;-69
2021/10/19 01:15:47;;;;;;;6.77;6.17;;;15.20;99.90;;;;;;5002868;28;20225;-69
2021/10/19 01:18:17;;;;;;;6.57;6.07;;;15.20;99.90;;;;;;4998908;28;20209;-69
2021/10/19 01:20:47;;;;;;;7.10;6.40;;;15.20;99.90;;;;;;5003234;28;20273;-68
2021/10/19 01:23:16;;;;;;;6.30;5.80;;;15.20;99.90;;;;;;5004311;28;21413;-69
2021/10/19 01:25:45;;;;;;;7.00;6.30;;;15.10;99.90;;;;;;5000097;28;20668;-69
2021/10/19 01:28:13;;;;;;;7.73;6.10;;;15.10;99.90;;;;;;5003808;28;20210;-69
2021/10/19 01:30:43;;;;;;;6.60;6.03;;;15.20;99.90;;;;;;5001348;28;20221;-69
2021/10/19 01:33:12;;;;;;;5.93;5.43;;;15.20;99.90;;;;;;4999556;28;20244;-69
2021/10/19 01:35:42;;;;;;;5.87;5.47;;;15.10;99.90;;;;;;5005482;28;20202;-70
2021/10/19 01:38:14;;;;;;;7.70;5.77;;;15.20;99.90;;;;;;4996177;28;20664;-69
2021/10/19 01:40:43;;;;;;;6.13;5.53;;;15.20;99.90;;;;;;5017017;28;20285;-69
2021/10/19 01:43:13;;;;;;;6.93;5.77;;;15.20;99.90;;;;;;5004685;28;20240;-69
2021/10/19 01:45:42;;;;;;;6.27;5.67;;;15.10;99.90;;;;;;5000725;28;20260;-70
2021/10/19 01:48:11;;;;;;;5.53;5.17;;;15.20;99.90;;;;;;5000789;28;20249;-69
2021/10/19 01:50:39;;;;;;;6.07;5.50;;;15.10;99.90;;;;;;5001792;28;20268;-70
2021/10/19 01:53:08;;;;;;;6.40;5.90;;;15.20;99.90;;;;;;5023255;28;20639;-70
2021/10/19 01:55:39;;;;;;;5.57;5.10;;;15.20;99.90;;;;;;5000834;28;20182;-69
2021/10/19 01:58:09;;;;;;;5.70;5.30;;;15.20;99.90;;;;;;5002464;28;20205;-69
2021/10/19 02:00:39;;;;;;;5.83;5.43;;;15.30;99.90;;;;;;5000681;28;20206;-69
2021/10/19 02:03:09;;;;;;;5.17;4.87;;;15.20;99.90;;;;;;5004304;28;20276;-70
2021/10/19 02:05:38;;;;;;;4.97;4.67;;;15.30;99.90;;;;;;5007992;28;20217;-70
2021/10/19 02:08:07;;;;;;;5.40;5.00;;;15.30;99.90;;;;;;5005834;28;20238;-69
2021/10/19 02:10:37;;;;;;;6.17;5.67;;;15.30;99.90;;;;;;5005175;28;20664;-69
2021/10/19 02:13:07;;;;;;;5.90;5.40;;;15.30;99.90;;;;;;5005890;28;20206;-69
2021/10/19 02:15:38;;;;;;;6.33;5.77;;;15.20;99.90;;;;;;5004380;28;20659;-69
2021/10/19 02:18:09;;;;;;;6.07;5.67;;;15.20;99.90;;;;;;5000120;28;20185;-69
2021/10/19 02:20:39;;;;;;;7.37;6.67;;;15.30;99.90;;;;;;5008740;28;20221;-69
2021/10/19 02:23:09;;;;;;;6.77;6.27;;;15.30;99.90;;;;;;4999033;28;20284;-69
2021/10/19 02:25:39;;;;;;;6.93;6.33;;;15.30;99.90;;;;;;5000299;28;20587;-68
2021/10/19 02:28:07;;;;;;;7.63;6.67;;;15.30;99.90;;;;;;5000607;28;20575;-69
2021/10/19 02:30:36;;;;;;;7.50;6.80;;;15.20;99.90;;;;;;5000197;28;20797;-69
2021/10/19 02:33:04;;;;;;;7.80;7.07;;;15.20;99.90;;;;;;5001065;28;20205;-69
2021/10/19 02:35:33;;;;;;;7.83;7.13;;;15.30;99.90;;;;;;4998391;28;20341;-69
2021/10/19 02:38:01;;;;;;;8.10;7.40;;;15.30;99.90;;;;;;4999550;28;20198;-69
2021/10/19 02:40:30;;;;;;;8.63;7.83;;;15.30;99.90;;;;;;5002096;28;20306;-69
2021/10/19 02:43:00;;;;;;;8.70;7.77;;;15.40;99.90;;;;;;5001329;28;20232;-69
2021/10/19 02:45:29;;;;;;;10.10;8.37;;;15.30;99.90;;;;;;5002591;28;20662;-69
2021/10/19 02:48:00;;;;;;;9.23;8.17;;;15.40;99.90;;;;;;5004576;28;20695;-69
2021/10/19 02:50:28;;;;;;;9.27;8.23;;;15.40;99.90;;;;;;5005411;28;20666;-69
2021/10/19 02:52:57;;;;;;;9.67;8.67;;;15.40;99.90;;;;;;5005268;28;20230;-69
2021/10/19 02:55:25;;;;;;;10.50;9.50;;;15.30;99.90;;;;;;5001936;28;20201;-69
2021/10/19 02:57:56;;;;;;;10.47;9.40;;;15.40;99.90;;;;;;5019707;28;20198;-69
2021/10/19 03:00:26;;;;;;;10.73;9.40;;;15.40;99.90;;;;;;5007475;28;20694;-69
2021/10/19 03:02:55;;;;;;;13.03;9.90;;;15.40;99.90;;;;;;5004404;28;20209;-69
2021/10/19 03:05:23;;;;;;;10.50;9.50;;;15.40;99.90;;;;;;5002988;28;20818;-69
2021/10/19 03:07:52;;;;;;;11.53;9.73;;;15.40;99.90;;;;;;5005719;28;20218;-69
2021/10/19 03:10:20;;;;;;;10.83;9.73;;;15.40;99.90;;;;;;5005841;28;20209;-69
2021/10/19 03:12:49;;;;;;;10.50;9.50;;;15.40;99.90;;;;;;5004175;28;20214;-69
2021/10/19 03:15:19;;;;;;;10.33;9.30;;;15.40;99.90;;;;;;5004658;28;20208;-68
2021/10/19 03:17:49;;;;;;;11.33;9.93;;;15.40;99.90;;;;;;5003016;28;20248;-69
2021/10/19 03:20:20;;;;;;;11.03;9.33;;;15.40;99.90;;;;;;4997140;28;20202;-69
2021/10/19 03:22:48;;;;;;;10.83;9.73;;;15.40;99.90;;;;;;5003746;28;20320;-69
2021/10/19 03:25:16;;;;;;;11.17;10.07;;;15.40;99.90;;;;;;5002350;28;20560;-69
2021/10/19 03:27:45;;;;;;;11.27;10.00;;;15.40;99.90;;;;;;5003584;28;20288;-69
2021/10/19 03:30:13;;;;;;;10.83;9.77;;;15.40;99.90;;;;;;5004172;28;20206;-69
2021/10/19 03:32:42;;;;;;;11.37;10.20;;;15.40;99.90;;;;;;5001274;28;20596;-69
2021/10/19 03:35:12;;;;;;;10.50;9.50;;;15.40;99.90;;;;;;5018478;28;20210;-69
2021/10/19 03:37:41;;;;;;;12.33;10.10;;;15.40;99.90;;;;;;5004775;28;20732;-70
2021/10/19 03:40:11;;;;;;;12.03;10.73;;;15.40;99.90;;;;;;5007947;28;20217;-68
2021/10/19 03:42:41;;;;;;;11.93;10.60;;;15.40;99.90;;;;;;5003657;28;20214;-69
2021/10/19 03:45:10;;;;;;;12.83;10.80;;;15.50;99.90;;;;;;5005432;28;20203;-69
2021/10/19 03:47:39;;;;;;;11.90;10.70;;;15.50;99.90;;;;;;5006908;28;20221;-69
2021/10/19 03:50:09;;;;;;;12.17;10.73;;;15.50;99.90;;;;;;5002056;28;20202;-69
2021/10/19 03:52:38;;;;;;;12.30;11.00;;;15.60;99.90;;;;;;5003464;28;20394;-69
2021/10/19 03:55:09;;;;;;;12.60;11.03;;;15.60;99.90;;;;;;5000160;28;20272;-69
2021/10/19 03:57:39;;;;;;;13.23;11.13;;;15.60;99.90;;;;;;5003601;28;20209;-69
2021/10/19 04:00:08;;;;;;;12.77;10.80;;;15.60;99.90;;;;;;5001721;28;20209;-69
2021/10/19 04:02:37;;;;;;;12.57;11.37;;;15.60;99.90;;;;;;5001876;28;20724;-68
2021/10/19 04:05:07;;;;;;;13.23;11.93;;;15.60;99.90;;;;;;5016361;28;20210;-69
2021/10/19 04:07:35;;;;;;;14.77;12.33;;;15.60;99.90;;;;;;5002740;28;20186;-69
2021/10/19 04:10:07;;;;;;;13.70;12.23;;;15.70;99.90;;;;;;5003159;28;20421;-69
2021/10/19 04:12:35;;;;;;;13.20;11.43;;;15.70;99.90;;;;;;5004551;28;20213;-69
2021/10/19 04:15:03;;;;;;;15.70;11.83;;;15.70;99.90;;;;;;5003525;28;20268;-69
2021/10/19 04:17:34;;;;;;;15.40;12.67;;;15.70;99.90;;;;;;5002252;28;20293;-69
2021/10/19 04:20:02;;;;;;;15.37;13.20;;;15.70;99.90;;;;;;5001934;28;20230;-69
2021/10/19 04:22:30;;;;;;;15.27;12.63;;;15.70;99.90;;;;;;5016730;28;20241;-69
2021/10/19 04:24:59;;;;;;;16.17;13.17;;;15.80;99.90;;;;;;5001798;28;20660;-69
2021/10/19 04:27:29;;;;;;;17.43;13.33;;;15.80;99.90;;;;;;5002830;28;20264;-70
2021/10/19 04:29:57;;;;;;;16.83;13.50;;;15.80;99.90;;;;;;5002019;28;20218;-69
2021/10/19 04:32:26;;;;;;;16.23;14.23;;;15.80;99.90;;;;;;5015377;28;20241;-69
2021/10/19 04:34:54;;;;;;;15.80;13.20;;;15.80;99.90;;;;;;5001068;28;20616;-69
2021/10/19 04:37:23;;;;;;;17.27;12.80;;;15.80;99.90;;;;;;5001914;28;20202;-69
2021/10/19 04:39:51;;;;;;;15.80;11.97;;;15.80;99.90;;;;;;5001151;28;20711;-69
2021/10/19 04:42:19;;;;;;;18.43;13.13;;;15.80;99.90;;;;;;5004369;28;20244;-69
2021/10/19 04:44:49;;;;;;;14.77;12.30;;;15.80;99.90;;;;;;5001786;28;20202;-69
2021/10/19 04:47:18;;;;;;;14.77;11.67;;;15.80;99.90;;;;;;5002940;28;20677;-69
2021/10/19 04:49:47;;;;;;;14.53;12.23;;;15.80;99.90;;;;;;5002444;28;20798;-69
2021/10/19 04:52:17;;;;;;;13.40;11.63;;;15.80;99.90;;;;;;5005878;28;20202;-69
2021/10/19 04:54:46;;;;;;;13.53;11.93;;;15.80;99.90;;;;;;4997985;28;20210;-71
2021/10/19 04:57:14;;;;;;;16.07;11.90;;;15.80;99.90;;;;;;4999803;28;20202;-71
2021/10/19 04:59:42;;;;;;;15.00;12.60;;;15.80;99.90;;;;;;5002078;28;20283;-71
2021/10/19 05:02:13;;;;;;;13.87;11.43;;;15.80;99.90;;;;;;5002089;28;20234;-71
2021/10/19 05:04:41;;;;;;;14.57;11.77;;;15.90;99.90;;;;;;5001415;28;20268;-71
2021/10/19 05:07:10;;;;;;;14.50;13.00;;;15.80;99.90;;;;;;4998679;28;20206;-72
2021/10/19 05:09:38;;;;;;;15.03;12.37;;;15.80;99.90;;;;;;4998510;28;20340;-71
2021/10/19 05:12:09;;;;;;;14.47;12.43;;;15.80;99.90;;;;;;4997013;28;20201;-71
2021/10/19 05:14:38;;;;;;;15.30;12.03;;;15.80;99.90;;;;;;4998424;28;20281;-71
2021/10/19 05:17:07;;;;;;;15.23;12.80;;;15.80;99.90;;;;;;5000990;28;20214;-71
2021/10/19 05:19:36;;;;;;;17.43;13.40;;;15.80;99.90;;;;;;5000006;28;20205;-71
2021/10/19 05:22:05;;;;;;;15.77;13.07;;;15.90;99.90;;;;;;5001497;28;20197;-71
2021/10/19 05:24:33;;;;;;;19.23;13.57;;;15.90;99.90;;;;;;5001898;28;20269;-72
2021/10/19 05:27:02;;;;;;;20.97;13.77;;;15.90;99.90;;;;;;5002206;28;20617;-71
2021/10/19 05:29:31;;;;;;;17.30;13.80;;;15.90;99.90;;;;;;4997900;28;20608;-71
2021/10/19 05:32:00;;;;;;;19.57;14.77;;;16.00;99.90;;;;;;5003707;28;20243;-69
2021/10/19 05:34:29;;;;;;;17.90;13.27;;;16.00;99.90;;;;;;5005112;28;20699;-69
2021/10/19 05:36:58;;;;;;;17.73;14.00;;;16.00;99.90;;;;;;4999282;28;20268;-69
2021/10/19 05:39:27;;;;;;;20.10;14.97;;;16.00;99.90;;;;;;4986343;28;20201;-69
2021/10/19 05:41:55;;;;;;;21.60;14.70;;;16.00;99.90;;;;;;5002444;28;20725;-69
2021/10/19 05:44:24;;;;;;;19.07;15.53;;;16.10;99.90;;;;;;5005712;28;20266;-70
2021/10/19 05:46:53;;;;;;;20.70;15.50;;;16.10;99.90;;;;;;5005511;28;20264;-70
2021/10/19 05:49:21;;;;;;;20.13;15.67;;;16.10;99.90;;;;;;5009051;28;20755;-70
2021/10/19 05:51:55;;;;;;;21.90;16.80;;;16.00;99.90;;;;;;5000024;28;20202;-69
2021/10/19 05:54:26;;;;;;;24.20;16.87;;;16.00;99.90;;;;;;5018526;28;20198;-70
2021/10/19 05:56:55;;;;;;;22.53;17.17;;;16.00;99.90;;;;;;5001085;28;20198;-70
2021/10/19 05:59:24;;;;;;;24.97;17.73;;;16.00;99.90;;;;;;4999547;28;20277;-70
2021/10/19 06:01:55;;;;;;;24.30;17.03;;;16.00;99.90;;;;;;5003599;28;20206;-70
2021/10/19 06:04:24;;;;;;;25.43;18.00;;;15.90;99.90;;;;;;5005802;28;20190;-70
2021/10/19 06:06:56;;;;;;;26.57;18.60;;;15.90;99.90;;;;;;5006106;28;20198;-70
2021/10/19 06:09:27;;;;;;;24.10;16.83;;;15.90;99.90;;;;;;5008637;28;20218;-70
2021/10/19 06:12:00;;;;;;;24.70;16.50;;;16.00;99.90;;;;;;5008367;28;20206;-70
2021/10/19 06:14:29;;;;;;;21.90;15.63;;;16.00;99.90;;;;;;5008187;28;20202;-70
2021/10/19 06:17:00;;;;;;;20.13;15.23;;;16.00;99.90;;;;;;5005293;28;20225;-70
2021/10/19 06:19:28;;;;;;;22.57;15.47;;;16.00;99.90;;;;;;5007693;28;20685;-70
2021/10/19 06:21:57;;;;;;;18.53;14.33;;;16.00;99.90;;;;;;5001569;28;20202;-68
2021/10/19 06:24:27;;;;;;;19.50;15.43;;;16.00;99.90;;;;;;5007828;28;20272;-70
2021/10/19 06:26:55;;;;;;;21.37;15.20;;;16.00;99.90;;;;;;5008399;28;20202;-72
2021/10/19 06:29:24;;;;;;;20.20;15.37;;;16.00;99.90;;;;;;5006640;28;20271;-71
2021/10/19 06:31:52;;;;;;;22.27;16.00;;;16.00;99.90;;;;;;5005905;28;20217;-72
2021/10/19 06:34:21;;;;;;;22.97;16.63;;;16.00;99.90;;;;;;5007394;28;20202;-72
2021/10/19 06:36:51;;;;;;;24.43;17.13;;;16.00;99.90;;;;;;5005840;28;20275;-70
2021/10/19 06:39:20;;;;;;;28.27;18.27;;;16.00;99.90;;;;;;5002150;28;20742;-70
2021/10/19 06:41:49;;;;;;;27.47;17.83;;;16.00;99.90;;;;;;5004070;28;20211;-70
2021/10/19 06:44:18;;;;;;;26.67;17.63;;;16.00;99.90;;;;;;5006806;28;20688;-70
2021/10/19 06:47:06;;;;;;;23.80;17.63;;;16.00;99.90;;;;;;5001664;28;20208;-70
2021/10/19 06:49:35;;;;;;;24.23;17.27;;;16.00;99.90;;;;;;5000487;28;20229;-71
2021/10/19 06:52:04;;;;;;;23.17;17.43;;;16.10;99.90;;;;;;5007915;28;20205;-70
2021/10/19 06:54:32;;;;;;;26.17;17.50;;;16.10;99.90;;;;;;5012231;28;20392;-70
2021/10/19 06:57:02;;;;;;;23.87;17.07;;;16.10;99.90;;;;;;5010014;28;20190;-70
2021/10/19 06:59:30;;;;;;;25.20;17.77;;;16.10;99.90;;;;;;5012743;28;20190;-70
2021/10/19 07:01:58;;;;;;;27.70;18.13;;;16.10;99.90;;;;;;5008792;28;20280;-68
2021/10/19 07:04:27;;;;;;;30.17;19.30;;;16.10;99.90;;;;;;5007347;28;20224;-70
2021/10/19 07:06:56;;;;;;;31.77;19.87;;;16.10;99.90;;;;;;5002534;28;20199;-70
2021/10/19 07:09:24;;;;;;;32.50;19.83;;;16.10;99.90;;;;;;5006336;28;20757;-71
2021/10/19 07:11:52;;;;;;;35.27;21.17;;;16.20;99.90;;;;;;5008116;28;20209;-70
2021/10/19 07:14:23;;;;;;;32.17;20.07;;;16.20;99.90;;;;;;5008820;28;20228;-70
2021/10/19 07:16:51;;;;;;;33.67;20.40;;;16.20;99.90;;;;;;5006245;28;20206;-70
2021/10/19 07:19:22;;;;;;;33.70;19.97;;;16.30;99.90;;;;;;5008797;28;20749;-70
2021/10/19 07:21:53;;;;;;;35.37;21.60;;;16.30;99.90;;;;;;5016455;28;20199;-70
2021/10/19 07:24:22;;;;;;;31.33;20.47;;;16.30;99.90;;;;;;5007289;28;20738;-70
2021/10/19 07:26:50;;;;;;;34.63;21.10;;;16.30;99.90;;;;;;5006537;28;20260;-70
2021/10/19 07:29:19;;;;;;;35.50;22.13;;;16.30;99.90;;;;;;5006739;28;20210;-70
2021/10/19 07:31:48;;;;;;;36.97;22.17;;;16.40;99.90;;;;;;5010035;28;20202;-70
2021/10/19 07:34:17;;;;;;;32.20;20.77;;;16.40;99.90;;;;;;5011071;28;20580;-70
2021/10/19 07:36:46;;;;;;;36.23;22.03;;;16.40;99.90;;;;;;5010741;28;20288;-70
2021/10/19 07:39:15;;;;;;;35.63;21.50;;;16.40;99.90;;;;;;5009487;28;20199;-70
2021/10/19 07:41:43;;;;;;;39.90;21.53;;;16.40;99.90;;;;;;5011087;28;20190;-70
2021/10/19 07:44:12;;;;;;;35.97;21.67;;;16.40;99.90;;;;;;5007351;28;20205;-69
2021/10/19 07:46:40;;;;;;;37.63;21.73;;;16.40;99.90;;;;;;5002317;28;20689;-70
2021/10/19 07:49:10;;;;;;;36.80;22.43;;;16.50;99.90;;;;;;5001895;28;20212;-70
2021/10/19 07:51:39;;;;;;;42.40;21.67;;;16.40;99.90;;;;;;5008871;28;20629;-70
2021/10/19 07:54:07;;;;;;;40.03;22.60;;;16.50;99.90;;;;;;5010169;28;20268;-70
2021/10/19 07:56:36;;;;;;;40.50;23.47;;;16.50;99.90;;;;;;5010558;28;20202;-70
2021/10/19 07:59:06;;;;;;;37.90;23.47;;;16.50;99.90;;;;;;5004874;28;20380;-70
2021/10/19 08:01:36;;;;;;;41.27;23.50;;;16.50;99.90;;;;;;5008492;28;20524;-70
2021/10/19 08:04:05;;;;;;;40.63;23.83;;;16.60;99.90;;;;;;5007963;28;20221;-71
2021/10/19 08:06:37;;;;;;;37.47;22.63;;;16.60;99.90;;;;;;5010848;28;20211;-70
2021/10/19 08:09:05;;;;;;;38.10;22.70;;;16.60;99.90;;;;;;4981288;28;20210;-70
2021/10/19 08:11:34;;;;;;;38.03;22.73;;;16.50;99.90;;;;;;5005188;28;20211;-70
2021/10/19 08:14:02;;;;;;;38.33;22.90;;;16.60;99.90;;;;;;5009851;28;20199;-66
2021/10/19 08:16:31;;;;;;;36.20;23.43;;;16.60;99.90;;;;;;5008319;28;20205;-70
2021/10/19 08:18:59;;;;;;;43.27;23.07;;;16.70;99.90;;;;;;5015878;28;20715;-70
2021/10/19 08:21:31;;;;;;;35.87;21.70;;;16.70;99.90;;;;;;5008680;28;20190;-70
2021/10/19 08:24:01;;;;;;;33.53;21.40;;;16.80;99.90;;;;;;5008838;28;20234;-70
2021/10/19 08:26:30;;;;;;;34.77;22.70;;;16.80;99.90;;;;;;5008458;28;20249;-70
2021/10/19 08:28:59;;;;;;;37.53;21.77;;;16.80;99.90;;;;;;5007652;28;20697;-70
2021/10/19 08:31:28;;;;;;;34.60;20.70;;;16.80;99.90;;;;;;5009768;28;20369;-70
2021/10/19 08:33:57;;;;;;;33.33;19.57;;;16.80;99.90;;;;;;5009565;28;20695;-70
2021/10/19 08:36:28;;;;;;;30.33;19.07;;;16.90;99.90;;;;;;5009521;28;20261;-69
2021/10/19 08:38:56;;;;;;;31.73;19.47;;;16.80;99.90;;;;;;5016058;28;20245;-70
2021/10/19 08:41:30;;;;;;;30.97;18.43;;;16.80;99.90;;;;;;5008533;28;20203;-70
2021/10/19 08:43:59;;;;;;;30.40;18.17;;;16.90;99.90;;;;;;5003943;28;20265;-68
2021/10/19 08:46:27;;;;;;;28.57;17.93;;;17.00;99.90;;;;;;5009366;28;20341;-70
2021/10/19 08:48:55;;;;;;;26.90;17.40;;;17.00;99.90;;;;;;5009477;28;20226;-69
2021/10/19 08:51:24;;;;;;;21.47;15.30;;;17.10;99.90;;;;;;5009452;28;20296;-70
2021/10/19 08:53:53;;;;;;;24.40;15.57;;;17.10;99.90;;;;;;5009977;28;20623;-69
2021/10/19 08:56:22;;;;;;;23.07;16.17;;;17.20;99.90;;;;;;5007650;28;20201;-70
2021/10/19 08:59:00;;;;;;;22.83;15.23;;;17.30;99.90;;;;;;5008154;28;20259;-70
2021/10/19 09:01:36;;;;;;;25.67;14.47;;;17.40;99.90;;;;;;5009135;28;20195;-70
2021/10/19 09:04:09;;;;;;;20.57;14.20;;;17.40;99.90;;;;;;5008824;28;20201;-69
2021/10/19 09:06:39;;;;;;;22.93;14.33;;;17.50;99.90;;;;;;5009701;28;20291;-70
2021/10/19 09:09:09;;;;;;;19.27;13.13;;;17.60;99.90;;;;;;5010887;28;20289;-70
2021/10/19 09:11:38;;;;;;;18.87;12.97;;;17.70;99.90;;;;;;5003699;28;20623;-69
2021/10/19 09:14:09;;;;;;;18.10;12.50;;;17.70;99.90;;;;;;5003278;28;20204;-69
2021/10/19 09:16:40;;;;;;;18.00;11.33;;;17.90;99.90;;;;;;5002345;28;20619;-69
2021/10/19 09:19:15;;;;;;;16.20;11.30;;;18.00;99.90;;;;;;5006324;28;20201;-69
2021/10/19 09:21:52;;;;;;;17.90;10.93;;;18.00;99.90;;;;;;5005589;28;20256;-70
2021/10/19 09:24:25;;;;;;;13.97;10.40;;;18.00;99.90;;;;;;5011972;28;20225;-69
2021/10/19 09:26:56;;;;;;;13.67;10.43;;;18.00;99.90;;;;;;5023730;28;20255;-69
2021/10/19 09:29:27;;;;;;;16.17;10.83;;;18.00;99.90;;;;;;5008473;28;20622;-69
2021/10/19 09:31:58;;;;;;;15.50;10.00;;;18.10;99.90;;;;;;5007430;28;20216;-70
2021/10/19 09:34:29;;;;;;;13.33;10.17;;;18.00;99.90;;;;;;5005224;28;20206;-69
2021/10/19 09:36:58;;;;;;;15.67;10.20;;;18.00;99.90;;;;;;5007706;28;20213;-69
2021/10/19 09:39:38;;;;;;;15.00;10.67;;;18.00;99.90;;;;;;4999693;28;20207;-69
2021/10/19 09:42:09;;;;;;;14.20;10.03;;;17.90;99.90;;;;;;5012836;28;20265;-67
2021/10/19 09:44:39;;;;;;;15.57;10.50;;;17.90;99.90;;;;;;5006419;28;20204;-70
2021/10/19 09:47:10;;;;;;;17.80;12.30;;;17.90;99.90;;;;;;5008286;28;20241;-69
2021/10/19 09:49:38;;;;;;;15.90;10.90;;;17.90;99.90;;;;;;5011905;28;20213;-70
2021/10/19 09:52:09;;;;;;;27.07;19.30;;;18.00;99.90;;;;;;5012051;28;20245;-69
2021/10/19 09:54:37;;;;;;;16.57;14.00;;;17.90;99.90;;;;;;5008068;28;20286;-70
2021/10/19 09:57:06;;;;;;;13.50;11.53;;;18.00;99.90;;;;;;5001700;28;20540;-69
2021/10/19 09:59:38;;;;;;;19.57;17.37;;;18.00;99.90;;;;;;4998948;28;20205;-70
2021/10/19 10:02:12;;;;;;;15.07;12.83;;;18.20;99.90;;;;;;5001994;28;20231;-66
2021/10/19 10:04:42;;;;;;;9.17;8.27;;;18.40;99.90;;;;;;5003243;28;20210;-69
2021/10/19 10:07:13;;;;;;;7.87;7.03;;;18.50;99.90;;;;;;5003805;28;20210;-69
2021/10/19 10:09:43;;;;;;;9.70;8.23;;;18.50;99.90;;;;;;5004011;28;20221;-69
2021/10/19 10:12:12;;;;;;;11.30;7.73;;;18.50;99.90;;;;;;5003831;28;20228;-69
2021/10/19 10:14:45;;;;;;;9.27;8.27;;;18.50;99.90;;;;;;5004844;28;20260;-70
2021/10/19 10:17:15;;;;;;;10.53;9.43;;;18.50;99.90;;;;;;5006213;28;20235;-69
2021/10/19 10:19:44;;;;;;;11.60;9.73;;;18.40;99.90;;;;;;5006962;28;20198;-69
2021/10/19 10:22:16;;;;;;;8.50;7.63;;;18.30;99.90;;;;;;5003906;28;20196;-69
2021/10/19 10:24:45;;;;;;;9.90;7.60;;;18.30;99.90;;;;;;5002914;28;20268;-69
2021/10/19 10:27:16;;;;;;;8.57;7.10;;;18.50;99.90;;;;;;5005395;28;20206;-70
2021/10/19 10:29:48;;;;;;;7.10;6.33;;;18.50;99.90;;;;;;5005486;28;20297;-69
2021/10/19 10:32:27;;;;;;;8.00;7.20;;;18.70;99.90;;;;;;5006306;28;20226;-69
2021/10/19 10:35:03;;;;;;;8.57;6.27;;;18.70;99.90;;;;;;5002735;28;20190;-69
2021/10/19 10:37:43;;;;;;;7.57;6.87;;;18.70;99.90;;;;;;5004477;28;20197;-69
2021/10/19 10:40:14;;;;;;;8.03;7.27;;;18.70;99.90;;;;;;5004332;28;20205;-71
2021/10/19 10:42:43;;;;;;;7.00;6.50;;;18.70;99.90;;;;;;4995197;28;20191;-69
2021/10/19 10:45:21;;;;;;;7.27;6.67;;;18.70;99.90;;;;;;4997166;28;20212;-69
2021/10/19 10:47:58;;;;;;;7.20;6.60;;;18.90;99.90;;;;;;5004372;28;20194;-69
2021/10/19 10:50:27;;;;;;;7.43;6.83;;;18.90;99.90;;;;;;5002495;28;20197;-69
2021/10/19 10:53:04;;;;;;;6.60;6.00;;;18.90;99.90;;;;;;4999026;28;20209;-69
2021/10/19 10:55:34;;;;;;;7.20;6.50;;;19.00;99.90;;;;;;5013128;28;20197;-69
2021/10/19 10:58:03;;;;;;;7.43;6.10;;;19.00;99.90;;;;;;5005135;28;20550;-69
2021/10/19 11:00:33;;;;;;;5.73;5.30;;;19.00;99.90;;;;;;5001467;28;20221;-69
2021/10/19 11:03:13;;;;;;;5.83;5.30;;;19.20;99.90;;;;;;5007161;28;20668;-69
2021/10/19 11:05:53;;;;;;;5.80;5.30;;;19.30;99.90;;;;;;5014062;28;20228;-69
2021/10/19 11:08:26;;;;;;;5.33;4.83;;;19.30;99.90;;;;;;5010374;28;20272;-69
2021/10/19 11:11:07;;;;;;;5.30;4.90;;;19.50;99.90;;;;;;5004548;28;20225;-69
2021/10/19 11:13:48;;;;;;;5.47;4.93;;;19.60;99.90;;;;;;4999048;28;20254;-69
2021/10/19 11:16:19;;;;;;;6.03;4.60;;;19.70;99.90;;;;;;5005885;28;20201;-69
2021/10/19 11:18:52;;;;;;;5.50;4.90;;;19.60;99.90;;;;;;5011586;28;20252;-69
2021/10/19 11:21:21;;;;;;;5.60;5.13;;;19.50;99.90;;;;;;5005375;28;20209;-69
2021/10/19 11:23:52;;;;;;;5.67;5.17;;;19.40;99.90;;;;;;5010021;28;20260;-69
2021/10/19 11:26:21;;;;;;;5.93;5.33;;;19.30;99.90;;;;;;5008621;28;20688;-69
2021/10/19 11:28:51;;;;;;;6.43;5.83;;;19.20;99.90;;;;;;5008261;28;20210;-69
2021/10/19 11:31:24;;;;;;;7.37;5.90;;;19.20;99.90;;;;;;5007233;28;20194;-68
2021/10/19 11:33:53;;;;;;;7.37;6.20;;;19.20;99.90;;;;;;5010132;28;20684;-69
2021/10/19 11:36:23;;;;;;;7.53;6.93;;;19.20;99.90;;;;;;5008359;28;20264;-69
2021/10/19 11:38:59;;;;;;;7.47;6.63;;;19.20;99.90;;;;;;5008457;28;20205;-69
2021/10/19 11:41:29;;;;;;;8.80;7.27;;;19.10;99.90;;;;;;5007674;28;20206;-69
2021/10/19 11:44:01;;;;;;;7.53;6.80;;;19.10;99.90;;;;;;5007443;28;20203;-69
2021/10/19 11:46:35;;;;;;;7.33;6.63;;;19.10;99.90;;;;;;5009324;28;20202;-69
2021/10/19 11:49:06;;;;;;;9.77;8.43;;;19.10;99.90;;;;;;5009980;28;20213;-69
2021/10/19 11:51:35;;;;;;;8.30;7.53;;;19.10;99.90;;;;;;5003753;28;20264;-69
2021/10/19 11:54:05;;;;;;;10.73;9.00;;;19.10;99.90;;;;;;5006628;28;20194;-69
2021/10/19 11:56:33;;;;;;;13.07;11.70;;;19.10;99.90;;;;;;5006951;28;20206;-69
2021/10/19 11:59:06;;;;;;;9.67;8.67;;;19.00;99.90;;;;;;5009736;28;20206;-70
2021/10/19 12:01:39;;;;;;;11.13;8.40;;;19.00;99.90;;;;;;5008179;28;20781;-69
2021/10/19 12:04:12;;;;;;;12.93;8.60;;;19.00;99.90;;;;;;5007702;28;20237;-69
2021/10/19 12:06:43;;;;;;;11.80;7.83;;;19.00;99.90;;;;;;5002445;28;20213;-69
2021/10/19 12:09:14;;;;;;;8.37;7.47;;;19.10;99.90;;;;;;5008164;28;20609;-69
2021/10/19 12:11:48;;;;;;;9.67;7.63;;;19.10;99.90;;;;;;5014081;28;20212;-70
2021/10/19 12:14:19;;;;;;;8.70;7.50;;;19.10;99.90;;;;;;5006810;28;20194;-69
2021/10/19 12:16:55;;;;;;;10.47;8.27;;;19.10;99.90;;;;;;5000660;28;20256;-69
2021/10/19 12:19:25;;;;;;;8.80;7.90;;;19.10;99.90;;;;;;5003395;28;20194;-69
2021/10/19 12:22:02;;;;;;;8.70;7.57;;;19.10;99.90;;;;;;5009001;28;20194;-69
2021/10/19 12:24:36;;;;;;;11.07;8.07;;;19.10;99.90;;;;;;5010529;28;20239;-69
2021/10/19 12:27:07;;;;;;;9.83;8.57;;;19.00;99.90;;;;;;5008776;28;20260;-69
2021/10/19 12:29:37;;;;;;;10.73;8.33;;;19.00;99.90;;;;;;5006771;28;20209;-69
2021/10/19 12:32:08;;;;;;;10.77;8.07;;;19.00;99.90;;;;;;4988352;28;20198;-69
2021/10/19 12:34:37;;;;;;;11.40;7.97;;;19.00;99.90;;;;;;5004872;28;20608;-69
2021/10/19 12:37:08;;;;;;;9.37;8.37;;;18.90;99.90;;;;;;5003994;28;20245;-69
2021/10/19 12:39:43;;;;;;;9.47;8.47;;;18.90;99.90;;;;;;4989570;28;20194;-69
2021/10/19 12:42:12;;;;;;;12.97;9.00;;;18.90;99.90;;;;;;5007190;28;20216;-69
2021/10/19 12:44:41;;;;;;;11.43;8.73;;;19.00;99.90;;;;;;5006800;28;20256;-70
2021/10/19 12:47:12;;;;;;;13.20;8.27;;;19.00;99.90;;;;;;5007242;28;20732;-69